sensor_id;sensor_type;location;lat;lon;timestamp;P1;durP1;ratioP1;P2;durP2;ratioP2
17598;SDS011;8918;52.092;5.232;2022-11-20T00:01:22;20.30;;;11.23;;
17598;SDS011;8918;52.092;5.232;2022-11-20T00:03:54;20.27;;;12.40;;
17598;SDS011;8918;52.092;5.232;2022-11-20T00:06:20;19.97;;;12.30;;
17598;SDS011;8918;52.092;5.232;2022-11-20T00:08:47;19.80;;;12.00;;
17598;SDS011;8918;52.092;5.232;2022-11-20T00:11:17;17.00;;;11.07;;
17598;SDS011;8918;52.092;5.232;2022-11-20T00:13:44;21.77;;;12.10;;
17598;SDS011;8918;52.092;5.232;2022-11-20T00:16:12;20.57;;;12.33;;
17598;SDS011;8918;52.092;5.232;2022-11-20T00:18:39;17.70;;;11.47;;
17598;SDS011;8918;52.092;5.232;2022-11-20T00:21:05;19.20;;;11.97;;
17598;SDS011;8918;52.092;5.232;2022-11-20T00:23:34;17.90;;;11.93;;
17598;SDS011;8918;52.092;5.232;2022-11-20T00:26:01;18.70;;;11.63;;
17598;SDS011;8918;52.092;5.232;2022-11-20T00:28:28;17.27;;;11.07;;
17598;SDS011;8918;52.092;5.232;2022-11-20T00:30:59;19.07;;;11.73;;
17598;SDS011;8918;52.092;5.232;2022-11-20T00:33:29;17.63;;;12.20;;
17598;SDS011;8918;52.092;5.232;2022-11-20T00:36:02;20.23;;;13.40;;
17598;SDS011;8918;52.092;5.232;2022-11-20T00:38:30;19.27;;;12.37;;
17598;SDS011;8918;52.092;5.232;2022-11-20T00:40:57;18.17;;;12.70;;
17598;SDS011;8918;52.092;5.232;2022-11-20T00:43:23;20.87;;;12.80;;
17598;SDS011;8918;52.092;5.232;2022-11-20T00:45:50;20.90;;;13.53;;
17598;SDS011;8918;52.092;5.232;2022-11-20T00:48:15;21.27;;;13.47;;
17598;SDS011;8918;52.092;5.232;2022-11-20T00:50:41;19.60;;;12.57;;
17598;SDS011;8918;52.092;5.232;2022-11-20T00:53:07;19.23;;;12.67;;
17598;SDS011;8918;52.092;5.232;2022-11-20T00:55:32;19.97;;;12.37;;
17598;SDS011;8918;52.092;5.232;2022-11-20T00:57:58;20.53;;;12.93;;
17598;SDS011;8918;52.092;5.232;2022-11-20T01:00:23;20.03;;;12.33;;
17598;SDS011;8918;52.092;5.232;2022-11-20T01:02:49;17.40;;;11.83;;
17598;SDS011;8918;52.092;5.232;2022-11-20T01:05:14;19.57;;;12.10;;
17598;SDS011;8918;52.092;5.232;2022-11-20T01:07:40;18.27;;;11.37;;
17598;SDS011;8918;52.092;5.232;2022-11-20T01:10:06;19.73;;;11.70;;
17598;SDS011;8918;52.092;5.232;2022-11-20T01:12:32;18.63;;;11.67;;
17598;SDS011;8918;52.092;5.232;2022-11-20T01:14:57;20.47;;;11.63;;
17598;SDS011;8918;52.092;5.232;2022-11-20T01:17:23;18.53;;;11.23;;
17598;SDS011;8918;52.092;5.232;2022-11-20T01:19:49;18.33;;;11.57;;
17598;SDS011;8918;52.092;5.232;2022-11-20T01:22:15;18.97;;;11.80;;
17598;SDS011;8918;52.092;5.232;2022-11-20T01:24:41;16.33;;;10.87;;
17598;SDS011;8918;52.092;5.232;2022-11-20T01:27:06;18.20;;;11.47;;
17598;SDS011;8918;52.092;5.232;2022-11-20T01:29:32;16.20;;;11.00;;
17598;SDS011;8918;52.092;5.232;2022-11-20T01:31:57;17.37;;;10.87;;
17598;SDS011;8918;52.092;5.232;2022-11-20T01:34:23;17.20;;;10.93;;
17598;SDS011;8918;52.092;5.232;2022-11-20T01:36:49;16.63;;;10.97;;
17598;SDS011;8918;52.092;5.232;2022-11-20T01:39:17;16.60;;;10.83;;
17598;SDS011;8918;52.092;5.232;2022-11-20T01:41:46;18.90;;;11.50;;
17598;SDS011;8918;52.092;5.232;2022-11-20T01:47:21;17.43;;;10.80;;
17598;SDS011;8918;52.092;5.232;2022-11-20T01:49:51;17.53;;;10.73;;
17598;SDS011;8918;52.092;5.232;2022-11-20T01:52:22;20.13;;;11.40;;
17598;SDS011;8918;52.092;5.232;2022-11-20T01:55:16;16.80;;;10.70;;
17598;SDS011;8918;52.092;5.232;2022-11-20T01:57:44;15.63;;;10.73;;
17598;SDS011;8918;52.092;5.232;2022-11-20T02:00:13;17.23;;;10.63;;
17598;SDS011;8918;52.092;5.232;2022-11-20T02:02:42;17.47;;;10.70;;
17598;SDS011;8918;52.092;5.232;2022-11-20T02:05:23;16.37;;;10.60;;
17598;SDS011;8918;52.092;5.232;2022-11-20T02:07:56;15.37;;;10.10;;
17598;SDS011;8918;52.092;5.232;2022-11-20T02:10:23;17.30;;;10.97;;
17598;SDS011;8918;52.092;5.232;2022-11-20T02:12:51;16.07;;;10.90;;
17598;SDS011;8918;52.092;5.232;2022-11-20T02:15:36;17.43;;;10.87;;
17598;SDS011;8918;52.092;5.232;2022-11-20T02:18:01;15.33;;;10.60;;
17598;SDS011;8918;52.092;5.232;2022-11-20T02:20:27;18.33;;;11.83;;
17598;SDS011;8918;52.092;5.232;2022-11-20T02:22:55;17.87;;;10.60;;
17598;SDS011;8918;52.092;5.232;2022-11-20T02:25:24;18.03;;;11.03;;
17598;SDS011;8918;52.092;5.232;2022-11-20T02:27:52;18.17;;;11.07;;
17598;SDS011;8918;52.092;5.232;2022-11-20T02:30:18;17.27;;;10.93;;
17598;SDS011;8918;52.092;5.232;2022-11-20T02:32:43;16.67;;;11.20;;
17598;SDS011;8918;52.092;5.232;2022-11-20T02:35:10;16.43;;;10.63;;
17598;SDS011;8918;52.092;5.232;2022-11-20T02:37:55;16.93;;;11.23;;
17598;SDS011;8918;52.092;5.232;2022-11-20T02:40:23;17.97;;;10.77;;
17598;SDS011;8918;52.092;5.232;2022-11-20T02:42:52;17.73;;;11.50;;
17598;SDS011;8918;52.092;5.232;2022-11-20T02:45:18;17.93;;;10.43;;
17598;SDS011;8918;52.092;5.232;2022-11-20T02:47:44;20.23;;;11.20;;
17598;SDS011;8918;52.092;5.232;2022-11-20T02:50:10;17.70;;;11.03;;
17598;SDS011;8918;52.092;5.232;2022-11-20T02:52:35;17.20;;;10.93;;
17598;SDS011;8918;52.092;5.232;2022-11-20T02:55:01;18.20;;;11.03;;
17598;SDS011;8918;52.092;5.232;2022-11-20T02:57:27;17.80;;;10.83;;
17598;SDS011;8918;52.092;5.232;2022-11-20T02:59:52;18.37;;;11.00;;
17598;SDS011;8918;52.092;5.232;2022-11-20T03:02:18;17.67;;;10.97;;
17598;SDS011;8918;52.092;5.232;2022-11-20T03:04:44;18.30;;;11.27;;
17598;SDS011;8918;52.092;5.232;2022-11-20T03:07:09;14.57;;;9.73;;
17598;SDS011;8918;52.092;5.232;2022-11-20T03:09:35;17.00;;;10.73;;
17598;SDS011;8918;52.092;5.232;2022-11-20T03:12:01;19.50;;;10.80;;
17598;SDS011;8918;52.092;5.232;2022-11-20T03:14:26;18.47;;;11.43;;
17598;SDS011;8918;52.092;5.232;2022-11-20T03:16:52;16.23;;;10.20;;
17598;SDS011;8918;52.092;5.232;2022-11-20T03:19:17;18.30;;;10.50;;
17598;SDS011;8918;52.092;5.232;2022-11-20T03:21:43;16.17;;;10.67;;
17598;SDS011;8918;52.092;5.232;2022-11-20T03:24:08;17.73;;;11.03;;
17598;SDS011;8918;52.092;5.232;2022-11-20T03:26:34;17.43;;;10.97;;
17598;SDS011;8918;52.092;5.232;2022-11-20T03:29:00;17.77;;;10.83;;
17598;SDS011;8918;52.092;5.232;2022-11-20T03:31:31;16.63;;;10.30;;
17598;SDS011;8918;52.092;5.232;2022-11-20T03:33:58;18.87;;;11.53;;
17598;SDS011;8918;52.092;5.232;2022-11-20T03:36:24;18.13;;;11.07;;
17598;SDS011;8918;52.092;5.232;2022-11-20T03:38:52;16.43;;;10.70;;
17598;SDS011;8918;52.092;5.232;2022-11-20T03:41:19;17.77;;;10.83;;
17598;SDS011;8918;52.092;5.232;2022-11-20T03:43:47;16.10;;;10.80;;
17598;SDS011;8918;52.092;5.232;2022-11-20T03:46:14;18.33;;;11.13;;
17598;SDS011;8918;52.092;5.232;2022-11-20T03:48:39;19.83;;;11.63;;
17598;SDS011;8918;52.092;5.232;2022-11-20T03:51:16;17.47;;;10.37;;
17598;SDS011;8918;52.092;5.232;2022-11-20T03:53:44;17.73;;;10.70;;
17598;SDS011;8918;52.092;5.232;2022-11-20T03:56:11;16.77;;;10.37;;
17598;SDS011;8918;52.092;5.232;2022-11-20T03:58:38;18.03;;;10.23;;
17598;SDS011;8918;52.092;5.232;2022-11-20T04:01:08;19.50;;;10.87;;
17598;SDS011;8918;52.092;5.232;2022-11-20T04:03:36;17.03;;;10.93;;
17598;SDS011;8918;52.092;5.232;2022-11-20T04:06:06;17.53;;;10.93;;
17598;SDS011;8918;52.092;5.232;2022-11-20T04:08:32;18.07;;;10.67;;
17598;SDS011;8918;52.092;5.232;2022-11-20T04:13:55;17.10;;;10.40;;
17598;SDS011;8918;52.092;5.232;2022-11-20T04:16:22;18.57;;;11.37;;
17598;SDS011;8918;52.092;5.232;2022-11-20T04:18:52;17.63;;;10.93;;
17598;SDS011;8918;52.092;5.232;2022-11-20T04:21:19;17.90;;;10.63;;
17598;SDS011;8918;52.092;5.232;2022-11-20T04:23:45;17.50;;;10.37;;
17598;SDS011;8918;52.092;5.232;2022-11-20T04:26:11;16.53;;;10.63;;
17598;SDS011;8918;52.092;5.232;2022-11-20T04:28:37;16.20;;;10.47;;
17598;SDS011;8918;52.092;5.232;2022-11-20T04:31:13;15.67;;;10.30;;
17598;SDS011;8918;52.092;5.232;2022-11-20T04:33:41;17.30;;;11.13;;
17598;SDS011;8918;52.092;5.232;2022-11-20T04:36:11;17.83;;;10.87;;
17598;SDS011;8918;52.092;5.232;2022-11-20T04:38:36;19.03;;;11.07;;
17598;SDS011;8918;52.092;5.232;2022-11-20T04:41:05;18.40;;;10.83;;
17598;SDS011;8918;52.092;5.232;2022-11-20T04:43:32;15.87;;;10.03;;
17598;SDS011;8918;52.092;5.232;2022-11-20T04:45:59;17.47;;;10.60;;
17598;SDS011;8918;52.092;5.232;2022-11-20T04:48:25;16.57;;;10.73;;
17598;SDS011;8918;52.092;5.232;2022-11-20T04:50:52;19.30;;;11.53;;
17598;SDS011;8918;52.092;5.232;2022-11-20T04:53:18;17.10;;;10.40;;
17598;SDS011;8918;52.092;5.232;2022-11-20T04:55:44;17.03;;;10.27;;
17598;SDS011;8918;52.092;5.232;2022-11-20T04:58:10;15.63;;;10.13;;
17598;SDS011;8918;52.092;5.232;2022-11-20T05:00:35;16.90;;;10.40;;
17598;SDS011;8918;52.092;5.232;2022-11-20T05:03:01;16.77;;;10.67;;
17598;SDS011;8918;52.092;5.232;2022-11-20T05:05:27;15.60;;;10.27;;
17598;SDS011;8918;52.092;5.232;2022-11-20T05:07:53;18.53;;;9.90;;
17598;SDS011;8918;52.092;5.232;2022-11-20T05:10:20;16.90;;;10.13;;
17598;SDS011;8918;52.092;5.232;2022-11-20T05:12:46;14.50;;;9.87;;
17598;SDS011;8918;52.092;5.232;2022-11-20T05:15:11;14.37;;;10.30;;
17598;SDS011;8918;52.092;5.232;2022-11-20T05:17:37;14.87;;;10.33;;
17598;SDS011;8918;52.092;5.232;2022-11-20T05:20:02;15.53;;;9.90;;
17598;SDS011;8918;52.092;5.232;2022-11-20T05:22:28;16.23;;;10.13;;
17598;SDS011;8918;52.092;5.232;2022-11-20T05:24:54;17.57;;;10.83;;
17598;SDS011;8918;52.092;5.232;2022-11-20T05:27:19;18.20;;;10.07;;
17598;SDS011;8918;52.092;5.232;2022-11-20T05:29:45;15.73;;;9.90;;
17598;SDS011;8918;52.092;5.232;2022-11-20T05:32:11;15.60;;;10.07;;
17598;SDS011;8918;52.092;5.232;2022-11-20T05:34:36;15.47;;;9.87;;
17598;SDS011;8918;52.092;5.232;2022-11-20T05:37:02;16.20;;;10.30;;
17598;SDS011;8918;52.092;5.232;2022-11-20T05:39:28;17.13;;;10.23;;
17598;SDS011;8918;52.092;5.232;2022-11-20T05:41:54;18.27;;;10.47;;
17598;SDS011;8918;52.092;5.232;2022-11-20T05:44:38;16.43;;;10.40;;
17598;SDS011;8918;52.092;5.232;2022-11-20T05:47:04;16.60;;;10.10;;
17598;SDS011;8918;52.092;5.232;2022-11-20T05:49:30;15.60;;;9.83;;
17598;SDS011;8918;52.092;5.232;2022-11-20T05:51:55;16.13;;;10.83;;
17598;SDS011;8918;52.092;5.232;2022-11-20T05:54:21;16.40;;;10.43;;
17598;SDS011;8918;52.092;5.232;2022-11-20T05:56:46;15.67;;;10.13;;
17598;SDS011;8918;52.092;5.232;2022-11-20T05:59:12;16.23;;;10.13;;
17598;SDS011;8918;52.092;5.232;2022-11-20T06:01:37;17.03;;;10.47;;
17598;SDS011;8918;52.092;5.232;2022-11-20T06:04:03;17.10;;;10.53;;
17598;SDS011;8918;52.092;5.232;2022-11-20T06:06:29;16.63;;;10.70;;
17598;SDS011;8918;52.092;5.232;2022-11-20T06:08:54;17.40;;;10.07;;
17598;SDS011;8918;52.092;5.232;2022-11-20T06:11:21;15.27;;;9.83;;
17598;SDS011;8918;52.092;5.232;2022-11-20T06:13:47;19.90;;;10.67;;
17598;SDS011;8918;52.092;5.232;2022-11-20T06:16:14;18.27;;;10.17;;
17598;SDS011;8918;52.092;5.232;2022-11-20T06:18:41;18.23;;;10.47;;
17598;SDS011;8918;52.092;5.232;2022-11-20T06:21:08;14.97;;;10.03;;
17598;SDS011;8918;52.092;5.232;2022-11-20T06:23:38;15.37;;;10.60;;
17598;SDS011;8918;52.092;5.232;2022-11-20T06:26:04;16.37;;;10.53;;
17598;SDS011;8918;52.092;5.232;2022-11-20T06:28:32;15.87;;;10.43;;
17598;SDS011;8918;52.092;5.232;2022-11-20T06:30:58;17.43;;;10.63;;
17598;SDS011;8918;52.092;5.232;2022-11-20T06:33:24;17.17;;;10.57;;
17598;SDS011;8918;52.092;5.232;2022-11-20T06:35:50;15.17;;;10.60;;
17598;SDS011;8918;52.092;5.232;2022-11-20T06:38:16;16.83;;;10.80;;
17598;SDS011;8918;52.092;5.232;2022-11-20T06:40:42;16.93;;;10.80;;
17598;SDS011;8918;52.092;5.232;2022-11-20T06:43:09;21.37;;;11.80;;
17598;SDS011;8918;52.092;5.232;2022-11-20T06:45:35;17.80;;;11.13;;
17598;SDS011;8918;52.092;5.232;2022-11-20T06:48:01;18.93;;;11.20;;
17598;SDS011;8918;52.092;5.232;2022-11-20T06:50:27;16.57;;;10.27;;
17598;SDS011;8918;52.092;5.232;2022-11-20T06:52:52;15.97;;;10.47;;
17598;SDS011;8918;52.092;5.232;2022-11-20T06:55:18;17.43;;;11.50;;
17598;SDS011;8918;52.092;5.232;2022-11-20T06:57:43;18.73;;;10.63;;
17598;SDS011;8918;52.092;5.232;2022-11-20T07:00:09;17.33;;;10.70;;
17598;SDS011;8918;52.092;5.232;2022-11-20T07:02:35;18.60;;;11.53;;
17598;SDS011;8918;52.092;5.232;2022-11-20T07:05:01;19.33;;;11.83;;
17598;SDS011;8918;52.092;5.232;2022-11-20T07:07:27;18.07;;;11.57;;
17598;SDS011;8918;52.092;5.232;2022-11-20T07:09:52;18.57;;;11.80;;
17598;SDS011;8918;52.092;5.232;2022-11-20T07:12:18;16.60;;;10.90;;
17598;SDS011;8918;52.092;5.232;2022-11-20T07:14:43;19.00;;;11.83;;
17598;SDS011;8918;52.092;5.232;2022-11-20T07:17:09;17.57;;;11.30;;
17598;SDS011;8918;52.092;5.232;2022-11-20T07:19:34;17.90;;;11.77;;
17598;SDS011;8918;52.092;5.232;2022-11-20T07:22:00;21.23;;;11.80;;
17598;SDS011;8918;52.092;5.232;2022-11-20T07:24:25;17.63;;;11.30;;
17598;SDS011;8918;52.092;5.232;2022-11-20T07:26:51;18.60;;;11.03;;
17598;SDS011;8918;52.092;5.232;2022-11-20T07:29:16;18.93;;;12.40;;
17598;SDS011;8918;52.092;5.232;2022-11-20T07:31:42;19.83;;;11.80;;
17598;SDS011;8918;52.092;5.232;2022-11-20T07:34:08;21.60;;;13.30;;
17598;SDS011;8918;52.092;5.232;2022-11-20T07:36:34;78.90;;;32.67;;
17598;SDS011;8918;52.092;5.232;2022-11-20T07:39:00;54.97;;;25.27;;
17598;SDS011;8918;52.092;5.232;2022-11-20T07:41:25;31.77;;;17.00;;
17598;SDS011;8918;52.092;5.232;2022-11-20T07:43:52;29.93;;;18.63;;
17598;SDS011;8918;52.092;5.232;2022-11-20T07:46:18;27.53;;;17.07;;
17598;SDS011;8918;52.092;5.232;2022-11-20T07:48:43;26.80;;;16.43;;
17598;SDS011;8918;52.092;5.232;2022-11-20T07:51:09;27.90;;;17.40;;
17598;SDS011;8918;52.092;5.232;2022-11-20T07:53:35;23.23;;;14.57;;
17598;SDS011;8918;52.092;5.232;2022-11-20T07:56:01;20.83;;;13.43;;
17598;SDS011;8918;52.092;5.232;2022-11-20T07:58:28;21.57;;;13.50;;
17598;SDS011;8918;52.092;5.232;2022-11-20T08:00:55;22.40;;;15.00;;
17598;SDS011;8918;52.092;5.232;2022-11-20T08:03:21;22.00;;;15.07;;
17598;SDS011;8918;52.092;5.232;2022-11-20T08:05:46;22.23;;;14.37;;
17598;SDS011;8918;52.092;5.232;2022-11-20T08:08:12;23.63;;;15.07;;
17598;SDS011;8918;52.092;5.232;2022-11-20T08:10:37;23.00;;;14.00;;
17598;SDS011;8918;52.092;5.232;2022-11-20T08:13:03;21.40;;;13.90;;
17598;SDS011;8918;52.092;5.232;2022-11-20T08:15:48;24.77;;;14.13;;
17598;SDS011;8918;52.092;5.232;2022-11-20T08:18:15;22.27;;;13.87;;
17598;SDS011;8918;52.092;5.232;2022-11-20T08:20:42;22.00;;;13.77;;
17598;SDS011;8918;52.092;5.232;2022-11-20T08:23:08;20.83;;;14.03;;
17598;SDS011;8918;52.092;5.232;2022-11-20T08:25:34;22.83;;;13.50;;
17598;SDS011;8918;52.092;5.232;2022-11-20T08:28:02;23.53;;;14.70;;
17598;SDS011;8918;52.092;5.232;2022-11-20T08:30:30;22.20;;;14.03;;
17598;SDS011;8918;52.092;5.232;2022-11-20T08:33:00;23.97;;;15.03;;
17598;SDS011;8918;52.092;5.232;2022-11-20T08:35:28;23.30;;;14.00;;
17598;SDS011;8918;52.092;5.232;2022-11-20T08:37:53;22.97;;;14.93;;
17598;SDS011;8918;52.092;5.232;2022-11-20T08:40:19;23.17;;;14.87;;
17598;SDS011;8918;52.092;5.232;2022-11-20T08:42:46;22.87;;;14.77;;
17598;SDS011;8918;52.092;5.232;2022-11-20T08:45:12;23.83;;;15.40;;
17598;SDS011;8918;52.092;5.232;2022-11-20T08:47:38;24.93;;;15.80;;
17598;SDS011;8918;52.092;5.232;2022-11-20T08:50:03;23.13;;;14.60;;
17598;SDS011;8918;52.092;5.232;2022-11-20T08:52:29;23.63;;;14.13;;
17598;SDS011;8918;52.092;5.232;2022-11-20T08:54:55;22.93;;;14.90;;
17598;SDS011;8918;52.092;5.232;2022-11-20T08:57:20;23.60;;;13.93;;
17598;SDS011;8918;52.092;5.232;2022-11-20T08:59:46;23.23;;;14.93;;
17598;SDS011;8918;52.092;5.232;2022-11-20T09:02:11;25.13;;;16.30;;
17598;SDS011;8918;52.092;5.232;2022-11-20T09:04:37;27.67;;;17.83;;
17598;SDS011;8918;52.092;5.232;2022-11-20T09:07:02;26.70;;;16.60;;
17598;SDS011;8918;52.092;5.232;2022-11-20T09:09:28;24.67;;;16.07;;
17598;SDS011;8918;52.092;5.232;2022-11-20T09:11:53;27.17;;;16.60;;
17598;SDS011;8918;52.092;5.232;2022-11-20T09:14:19;27.47;;;17.27;;
17598;SDS011;8918;52.092;5.232;2022-11-20T09:16:46;28.23;;;16.63;;
17598;SDS011;8918;52.092;5.232;2022-11-20T09:19:11;25.13;;;15.57;;
17598;SDS011;8918;52.092;5.232;2022-11-20T09:21:37;24.60;;;16.13;;
17598;SDS011;8918;52.092;5.232;2022-11-20T09:24:02;27.20;;;16.13;;
17598;SDS011;8918;52.092;5.232;2022-11-20T09:26:29;25.57;;;16.10;;
17598;SDS011;8918;52.092;5.232;2022-11-20T09:28:55;24.30;;;16.13;;
17598;SDS011;8918;52.092;5.232;2022-11-20T09:31:24;25.43;;;15.87;;
17598;SDS011;8918;52.092;5.232;2022-11-20T09:33:51;26.13;;;15.93;;
17598;SDS011;8918;52.092;5.232;2022-11-20T09:36:17;23.17;;;15.97;;
17598;SDS011;8918;52.092;5.232;2022-11-20T09:38:44;32.77;;;20.00;;
17598;SDS011;8918;52.092;5.232;2022-11-20T09:41:35;29.03;;;18.03;;
17598;SDS011;8918;52.092;5.232;2022-11-20T09:46:58;24.30;;;15.77;;
17598;SDS011;8918;52.092;5.232;2022-11-20T09:49:46;22.90;;;14.90;;
17598;SDS011;8918;52.092;5.232;2022-11-20T09:52:25;22.83;;;15.57;;
17598;SDS011;8918;52.092;5.232;2022-11-20T09:55:04;24.87;;;16.40;;
17598;SDS011;8918;52.092;5.232;2022-11-20T09:57:39;24.63;;;15.83;;
17598;SDS011;8918;52.092;5.232;2022-11-20T10:00:11;34.13;;;19.90;;
17598;SDS011;8918;52.092;5.232;2022-11-20T10:03:00;32.37;;;19.20;;
17598;SDS011;8918;52.092;5.232;2022-11-20T10:05:32;29.70;;;17.90;;
17598;SDS011;8918;52.092;5.232;2022-11-20T10:08:10;33.93;;;19.80;;
17598;SDS011;8918;52.092;5.232;2022-11-20T10:10:43;33.20;;;19.83;;
17598;SDS011;8918;52.092;5.232;2022-11-20T10:21:29;24.70;;;16.30;;
17598;SDS011;8918;52.092;5.232;2022-11-20T10:24:44;24.10;;;14.87;;
17598;SDS011;8918;52.092;5.232;2022-11-20T10:27:07;24.93;;;14.80;;
17598;SDS011;8918;52.092;5.232;2022-11-20T10:29:59;23.83;;;14.90;;
17598;SDS011;8918;52.092;5.232;2022-11-20T10:32:38;24.53;;;15.17;;
17598;SDS011;8918;52.092;5.232;2022-11-20T10:35:14;24.23;;;15.37;;
17598;SDS011;8918;52.092;5.232;2022-11-20T10:37:45;28.30;;;17.80;;
17598;SDS011;8918;52.092;5.232;2022-11-20T10:40:27;27.20;;;17.13;;
17598;SDS011;8918;52.092;5.232;2022-11-20T10:43:25;26.77;;;17.40;;
17598;SDS011;8918;52.092;5.232;2022-11-20T10:46:01;27.83;;;17.50;;
17598;SDS011;8918;52.092;5.232;2022-11-20T10:48:33;28.60;;;17.37;;
17598;SDS011;8918;52.092;5.232;2022-11-20T10:51:08;27.37;;;17.63;;
17598;SDS011;8918;52.092;5.232;2022-11-20T10:56:53;29.10;;;18.60;;
17598;SDS011;8918;52.092;5.232;2022-11-20T11:02:19;28.60;;;17.60;;
17598;SDS011;8918;52.092;5.232;2022-11-20T11:04:47;28.33;;;17.47;;
17598;SDS011;8918;52.092;5.232;2022-11-20T11:07:25;28.20;;;18.00;;
17598;SDS011;8918;52.092;5.232;2022-11-20T11:09:55;27.87;;;17.57;;
17598;SDS011;8918;52.092;5.232;2022-11-20T11:12:23;26.30;;;17.07;;
17598;SDS011;8918;52.092;5.232;2022-11-20T11:14:51;27.67;;;17.60;;
17598;SDS011;8918;52.092;5.232;2022-11-20T11:17:28;24.53;;;16.47;;
17598;SDS011;8918;52.092;5.232;2022-11-20T11:22:49;26.57;;;17.40;;
17598;SDS011;8918;52.092;5.232;2022-11-20T11:25:24;26.77;;;17.60;;
17598;SDS011;8918;52.092;5.232;2022-11-20T11:28:02;31.07;;;18.37;;
17598;SDS011;8918;52.092;5.232;2022-11-20T11:30:50;29.63;;;18.47;;
17598;SDS011;8918;52.092;5.232;2022-11-20T11:33:21;30.07;;;19.40;;
17598;SDS011;8918;52.092;5.232;2022-11-20T11:35:50;31.10;;;18.67;;
17598;SDS011;8918;52.092;5.232;2022-11-20T11:38:22;29.73;;;18.80;;
17598;SDS011;8918;52.092;5.232;2022-11-20T11:40:54;31.03;;;18.63;;
17598;SDS011;8918;52.092;5.232;2022-11-20T11:43:23;33.27;;;20.20;;
17598;SDS011;8918;52.092;5.232;2022-11-20T11:46:25;34.87;;;21.13;;
17598;SDS011;8918;52.092;5.232;2022-11-20T11:51:26;33.57;;;20.17;;
17598;SDS011;8918;52.092;5.232;2022-11-20T11:54:15;35.20;;;19.77;;
17598;SDS011;8918;52.092;5.232;2022-11-20T11:56:44;32.70;;;20.27;;
17598;SDS011;8918;52.092;5.232;2022-11-20T11:59:12;33.10;;;20.87;;
17598;SDS011;8918;52.092;5.232;2022-11-20T12:02:02;36.13;;;21.20;;
17598;SDS011;8918;52.092;5.232;2022-11-20T12:04:42;33.13;;;20.57;;
17598;SDS011;8918;52.092;5.232;2022-11-20T12:07:15;34.13;;;20.27;;
17598;SDS011;8918;52.092;5.232;2022-11-20T12:09:52;31.30;;;20.03;;
17598;SDS011;8918;52.092;5.232;2022-11-20T12:12:24;36.40;;;20.43;;
17598;SDS011;8918;52.092;5.232;2022-11-20T12:14:55;37.43;;;22.00;;
17598;SDS011;8918;52.092;5.232;2022-11-20T12:17:21;39.83;;;22.90;;
17598;SDS011;8918;52.092;5.232;2022-11-20T12:19:47;42.27;;;24.20;;
17598;SDS011;8918;52.092;5.232;2022-11-20T12:30:19;38.60;;;23.63;;
17598;SDS011;8918;52.092;5.232;2022-11-20T12:43:21;42.07;;;24.23;;
17598;SDS011;8918;52.092;5.232;2022-11-20T12:57:29;37.47;;;22.17;;
17598;SDS011;8918;52.092;5.232;2022-11-20T13:00:15;40.33;;;22.70;;
17598;SDS011;8918;52.092;5.232;2022-11-20T13:05:48;40.30;;;22.63;;
17598;SDS011;8918;52.092;5.232;2022-11-20T13:08:34;45.43;;;23.70;;
17598;SDS011;8918;52.092;5.232;2022-11-20T13:11:18;42.80;;;23.40;;
17598;SDS011;8918;52.092;5.232;2022-11-20T13:13:50;40.43;;;22.70;;
17598;SDS011;8918;52.092;5.232;2022-11-20T13:16:39;43.93;;;23.50;;
17598;SDS011;8918;52.092;5.232;2022-11-20T13:19:15;47.20;;;24.47;;
17598;SDS011;8918;52.092;5.232;2022-11-20T13:21:43;43.57;;;24.67;;
17598;SDS011;8918;52.092;5.232;2022-11-20T13:27:03;44.30;;;23.37;;
17598;SDS011;8918;52.092;5.232;2022-11-20T13:29:40;48.40;;;22.93;;
17598;SDS011;8918;52.092;5.232;2022-11-20T13:34:56;41.77;;;22.90;;
17598;SDS011;8918;52.092;5.232;2022-11-20T13:37:31;42.40;;;23.50;;
17598;SDS011;8918;52.092;5.232;2022-11-20T13:42:35;43.90;;;23.00;;
17598;SDS011;8918;52.092;5.232;2022-11-20T13:45:08;45.97;;;24.37;;
17598;SDS011;8918;52.092;5.232;2022-11-20T13:47:49;45.90;;;24.20;;
17598;SDS011;8918;52.092;5.232;2022-11-20T13:50:15;47.20;;;25.03;;
17598;SDS011;8918;52.092;5.232;2022-11-20T14:03:33;42.20;;;23.13;;
17598;SDS011;8918;52.092;5.232;2022-11-20T14:06:04;45.13;;;24.43;;
17598;SDS011;8918;52.092;5.232;2022-11-20T14:08:46;42.60;;;23.73;;
17598;SDS011;8918;52.092;5.232;2022-11-20T14:11:23;44.60;;;25.30;;
17598;SDS011;8918;52.092;5.232;2022-11-20T14:16:33;48.83;;;25.53;;
17598;SDS011;8918;52.092;5.232;2022-11-20T14:21:45;44.10;;;25.57;;
17598;SDS011;8918;52.092;5.232;2022-11-20T14:24:11;50.83;;;26.50;;
17598;SDS011;8918;52.092;5.232;2022-11-20T14:26:41;46.27;;;25.27;;
17598;SDS011;8918;52.092;5.232;2022-11-20T14:29:12;46.77;;;25.83;;
17598;SDS011;8918;52.092;5.232;2022-11-20T14:31:42;46.37;;;25.90;;
17598;SDS011;8918;52.092;5.232;2022-11-20T14:34:19;49.03;;;25.73;;
17598;SDS011;8918;52.092;5.232;2022-11-20T14:36:51;45.10;;;26.17;;
17598;SDS011;8918;52.092;5.232;2022-11-20T14:39:22;49.80;;;25.53;;
17598;SDS011;8918;52.092;5.232;2022-11-20T14:41:53;46.73;;;24.90;;
17598;SDS011;8918;52.092;5.232;2022-11-20T14:44:20;50.40;;;27.47;;
17598;SDS011;8918;52.092;5.232;2022-11-20T14:46:51;49.37;;;27.50;;
17598;SDS011;8918;52.092;5.232;2022-11-20T14:49:18;51.93;;;29.00;;
17598;SDS011;8918;52.092;5.232;2022-11-20T14:51:44;46.90;;;26.53;;
17598;SDS011;8918;52.092;5.232;2022-11-20T14:54:11;51.20;;;30.40;;
17598;SDS011;8918;52.092;5.232;2022-11-20T14:56:40;45.53;;;27.00;;
17598;SDS011;8918;52.092;5.232;2022-11-20T14:59:07;52.93;;;27.53;;
17598;SDS011;8918;52.092;5.232;2022-11-20T15:01:33;48.73;;;26.07;;
17598;SDS011;8918;52.092;5.232;2022-11-20T15:04:06;47.07;;;25.87;;
17598;SDS011;8918;52.092;5.232;2022-11-20T15:06:35;48.97;;;25.67;;
17598;SDS011;8918;52.092;5.232;2022-11-20T15:09:02;48.97;;;26.77;;
17598;SDS011;8918;52.092;5.232;2022-11-20T15:11:30;47.30;;;25.87;;
17598;SDS011;8918;52.092;5.232;2022-11-20T15:13:58;45.93;;;26.17;;
17598;SDS011;8918;52.092;5.232;2022-11-20T15:16:28;46.33;;;26.33;;
17598;SDS011;8918;52.092;5.232;2022-11-20T15:18:54;47.47;;;25.83;;
17598;SDS011;8918;52.092;5.232;2022-11-20T15:21:20;49.30;;;26.50;;
17598;SDS011;8918;52.092;5.232;2022-11-20T15:23:46;45.33;;;25.77;;
17598;SDS011;8918;52.092;5.232;2022-11-20T15:26:13;44.70;;;25.60;;
17598;SDS011;8918;52.092;5.232;2022-11-20T15:28:43;45.70;;;27.50;;
17598;SDS011;8918;52.092;5.232;2022-11-20T15:31:12;47.50;;;28.00;;
17598;SDS011;8918;52.092;5.232;2022-11-20T15:33:41;54.73;;;29.57;;
17598;SDS011;8918;52.092;5.232;2022-11-20T15:36:07;47.63;;;29.40;;
17598;SDS011;8918;52.092;5.232;2022-11-20T15:38:33;40.77;;;24.37;;
17598;SDS011;8918;52.092;5.232;2022-11-20T15:40:59;39.23;;;22.80;;
17598;SDS011;8918;52.092;5.232;2022-11-20T15:43:25;39.30;;;23.27;;
17598;SDS011;8918;52.092;5.232;2022-11-20T15:45:51;39.13;;;24.83;;
17598;SDS011;8918;52.092;5.232;2022-11-20T15:48:22;37.70;;;24.37;;
17598;SDS011;8918;52.092;5.232;2022-11-20T15:53:28;37.80;;;23.57;;
17598;SDS011;8918;52.092;5.232;2022-11-20T15:55:54;39.80;;;24.23;;
17598;SDS011;8918;52.092;5.232;2022-11-20T15:58:20;37.07;;;23.83;;
17598;SDS011;8918;52.092;5.232;2022-11-20T16:00:47;38.93;;;24.63;;
17598;SDS011;8918;52.092;5.232;2022-11-20T16:03:14;36.77;;;24.77;;
17598;SDS011;8918;52.092;5.232;2022-11-20T16:05:41;36.07;;;23.63;;
17598;SDS011;8918;52.092;5.232;2022-11-20T16:08:07;36.20;;;23.53;;
17598;SDS011;8918;52.092;5.232;2022-11-20T16:10:32;38.00;;;24.17;;
17598;SDS011;8918;52.092;5.232;2022-11-20T16:12:58;37.23;;;22.93;;
17598;SDS011;8918;52.092;5.232;2022-11-20T16:15:44;38.53;;;22.97;;